createdAt,value
2023-01-21T00:00:25.805Z,28.10
2023-01-21T00:02:12.121Z,31.00
2023-01-21T00:03:12.103Z,28.70
2023-01-21T00:04:12.047Z,28.20
2023-01-21T00:05:12.034Z,27.10
2023-01-21T00:06:12.031Z,27.50
2023-01-21T00:07:12.007Z,30.40
2023-01-21T00:08:11.987Z,29.30
2023-01-21T00:09:11.985Z,31.10
2023-01-21T00:10:11.957Z,31.80
2023-01-21T00:11:11.949Z,32.70
2023-01-21T00:12:11.927Z,34.90
2023-01-21T00:13:11.925Z,33.20
2023-01-21T00:14:11.903Z,36.80
2023-01-21T00:15:11.891Z,30.20
2023-01-21T00:16:11.976Z,33.20
2023-01-21T00:17:11.862Z,30.30
2023-01-21T00:18:11.841Z,30.20
2023-01-21T00:19:11.825Z,30.90
2023-01-21T00:20:11.807Z,33.70
2023-01-21T00:21:11.802Z,30.80
2023-01-21T00:22:11.820Z,32.10
2023-01-21T00:23:11.771Z,33.90
2023-01-21T00:24:11.775Z,28.70
2023-01-21T00:25:11.742Z,30.80
2023-01-21T00:26:11.737Z,33.10
2023-01-21T00:27:11.716Z,32.60
2023-01-21T00:28:11.710Z,36.00
2023-01-21T00:29:11.678Z,30.00
2023-01-21T00:30:11.661Z,28.30
2023-01-21T00:31:11.857Z,26.90
2023-01-21T00:32:11.630Z,28.70
2023-01-21T00:33:11.618Z,27.40
2023-01-21T00:34:11.608Z,25.70
2023-01-21T00:35:11.601Z,24.40
2023-01-21T00:36:11.570Z,30.20
2023-01-21T00:37:11.565Z,29.80
2023-01-21T00:38:11.556Z,28.30
2023-01-21T00:39:11.525Z,27.70
2023-01-21T00:40:11.514Z,27.50
2023-01-21T00:41:11.504Z,29.10
2023-01-21T00:42:11.482Z,27.20
2023-01-21T00:43:11.474Z,28.30
2023-01-21T00:44:11.452Z,28.10
2023-01-21T00:45:11.437Z,30.10
2023-01-21T00:46:11.509Z,27.70
2023-01-21T00:47:11.408Z,28.80
2023-01-21T00:48:11.396Z,26.40
2023-01-21T00:49:11.383Z,27.00
2023-01-21T00:50:11.362Z,30.50
2023-01-21T00:51:11.395Z,27.90
2023-01-21T00:52:11.335Z,26.30
2023-01-21T00:53:11.321Z,27.00
2023-01-21T00:54:11.306Z,28.10
2023-01-21T00:55:11.291Z,28.00
2023-01-21T00:56:11.289Z,26.90
2023-01-21T00:57:11.264Z,24.90
2023-01-21T00:58:11.245Z,25.90
2023-01-21T00:59:11.239Z,24.20
2023-01-21T01:00:11.221Z,26.40
2023-01-21T01:01:11.270Z,23.70
2023-01-21T01:02:11.204Z,20.00
2023-01-21T01:03:11.184Z,21.40
2023-01-21T01:04:11.161Z,22.10
2023-01-21T01:05:11.143Z,21.90
2023-01-21T01:06:11.127Z,24.30
2023-01-21T01:07:11.199Z,22.30
2023-01-21T01:08:11.101Z,23.30
2023-01-21T01:09:11.113Z,25.10
2023-01-21T01:10:11.085Z,22.10
2023-01-21T01:11:11.059Z,21.60
2023-01-21T01:12:11.035Z,20.50
2023-01-21T01:13:11.023Z,23.20
2023-01-21T01:14:11.016Z,20.40
2023-01-21T01:15:10.992Z,22.10
2023-01-21T01:16:11.056Z,23.80
2023-01-21T01:17:10.968Z,26.30
2023-01-21T01:18:10.962Z,23.20
2023-01-21T01:19:10.979Z,22.90
2023-01-21T01:20:10.920Z,24.70
2023-01-21T01:21:10.902Z,23.70
2023-01-21T01:22:10.894Z,23.60
2023-01-21T01:23:10.873Z,22.70
2023-01-21T01:24:10.935Z,25.70
2023-01-21T01:25:10.844Z,19.50
2023-01-21T01:26:10.836Z,22.50
2023-01-21T01:27:10.814Z,19.70
2023-01-21T01:28:10.797Z,20.10
2023-01-21T01:29:10.783Z,19.00
2023-01-21T01:30:10.774Z,20.20
2023-01-21T01:31:10.812Z,20.00
2023-01-21T01:32:10.734Z,20.20
2023-01-21T01:33:10.720Z,20.30
2023-01-21T01:34:10.708Z,20.30
2023-01-21T01:35:10.692Z,17.60
2023-01-21T01:36:10.676Z,22.60
2023-01-21T01:37:10.660Z,33.00
2023-01-21T01:38:10.653Z,16.90
2023-01-21T01:39:10.637Z,17.10
2023-01-21T01:40:10.620Z,17.10
2023-01-21T01:41:10.606Z,16.60
2023-01-21T01:42:10.584Z,17.80
2023-01-21T01:43:10.568Z,16.00
2023-01-21T01:44:10.558Z,19.40
2023-01-21T01:45:10.552Z,27.00
2023-01-21T01:46:10.554Z,32.30
2023-01-21T01:47:10.519Z,18.00
2023-01-21T01:48:10.495Z,16.90
2023-01-21T01:49:10.484Z,15.60
2023-01-21T01:50:10.467Z,18.80
2023-01-21T01:51:10.578Z,14.90
2023-01-21T01:52:10.436Z,16.50
2023-01-21T01:53:10.424Z,18.10
2023-01-21T01:54:10.415Z,20.70
2023-01-21T01:55:10.389Z,22.90
2023-01-21T01:56:10.376Z,23.50
2023-01-21T01:57:10.362Z,30.00
2023-01-21T01:58:10.344Z,31.10
2023-01-21T01:59:10.334Z,31.30
2023-01-21T02:00:10.314Z,33.10
2023-01-21T02:01:10.298Z,31.40
2023-01-21T02:02:10.292Z,34.30
2023-01-21T02:03:10.281Z,29.70
2023-01-21T02:04:10.258Z,30.10
2023-01-21T02:05:10.252Z,37.10
2023-01-21T02:06:10.233Z,33.40
2023-01-21T02:07:10.215Z,30.30
2023-01-21T02:08:10.196Z,29.90
2023-01-21T02:09:10.175Z,31.70
2023-01-21T02:10:10.160Z,32.10
2023-01-21T02:11:10.173Z,33.90
2023-01-21T02:12:10.134Z,28.90
2023-01-21T02:13:10.117Z,31.60
2023-01-21T02:14:10.111Z,32.30
2023-01-21T02:15:10.090Z,31.60
2023-01-21T02:16:10.144Z,33.10
2023-01-21T02:17:10.076Z,32.50
2023-01-21T02:18:10.044Z,32.00
2023-01-21T02:19:10.096Z,33.00
2023-01-21T02:20:10.044Z,30.40
2023-01-21T02:21:10.025Z,30.20
2023-01-21T02:22:09.983Z,33.10
2023-01-21T02:23:10.007Z,36.60
2023-01-21T02:24:09.954Z,33.90
2023-01-21T02:25:09.943Z,29.90
2023-01-21T02:26:09.932Z,29.40
2023-01-21T02:27:09.914Z,27.70
2023-01-21T02:28:09.963Z,31.70
2023-01-21T02:29:09.885Z,30.70
2023-01-21T02:30:09.865Z,31.90
2023-01-21T02:31:09.971Z,33.50
2023-01-21T02:32:09.840Z,33.70
2023-01-21T02:33:09.849Z,30.40
2023-01-21T02:34:09.805Z,25.80
2023-01-21T02:35:09.797Z,25.50
2023-01-21T02:36:09.776Z,25.90
2023-01-21T02:37:09.768Z,22.40
2023-01-21T02:38:09.749Z,21.50
2023-01-21T02:39:09.734Z,24.20
2023-01-21T02:40:09.723Z,21.60
2023-01-21T02:41:09.703Z,23.90
2023-01-21T02:42:09.687Z,22.80
2023-01-21T02:43:09.674Z,20.30
2023-01-21T02:44:09.655Z,22.00
2023-01-21T02:45:09.643Z,19.70
2023-01-21T02:46:09.630Z,20.00
2023-01-21T02:47:09.636Z,20.80
2023-01-21T02:48:09.601Z,22.50
2023-01-21T02:49:09.587Z,22.00
2023-01-21T02:50:09.568Z,20.50
2023-01-21T02:51:09.596Z,17.80
2023-01-21T02:52:09.541Z,21.20
2023-01-21T02:53:09.533Z,19.70
2023-01-21T02:54:09.516Z,20.30
2023-01-21T02:55:09.498Z,19.20
2023-01-21T02:56:09.485Z,19.60
2023-01-21T02:57:09.468Z,20.90
2023-01-21T02:58:09.494Z,24.40
2023-01-21T02:59:09.440Z,21.00
2023-01-21T03:00:09.427Z,20.90
2023-01-21T03:01:09.455Z,18.70
2023-01-21T03:02:09.431Z,19.90
2023-01-21T03:03:09.385Z,20.40
2023-01-21T03:04:09.361Z,20.70
2023-01-21T03:05:09.356Z,21.80
2023-01-21T03:06:09.343Z,19.10
2023-01-21T03:07:09.323Z,19.50
2023-01-21T03:08:09.305Z,18.80
2023-01-21T03:09:09.291Z,21.70
2023-01-21T03:10:09.274Z,18.20
2023-01-21T03:11:09.265Z,19.10
2023-01-21T03:12:09.252Z,19.60
2023-01-21T03:13:09.241Z,18.90
2023-01-21T03:14:09.216Z,18.00
2023-01-21T03:15:09.209Z,19.10
2023-01-21T03:16:09.269Z,20.80
2023-01-21T03:17:09.175Z,20.90
2023-01-21T03:18:09.156Z,19.80
2023-01-21T03:19:09.147Z,20.10
2023-01-21T03:20:09.147Z,17.20
2023-01-21T03:21:09.131Z,16.80
2023-01-21T03:22:09.102Z,18.10
2023-01-21T03:23:09.093Z,18.20
2023-01-21T03:24:09.079Z,19.20
2023-01-21T03:25:09.056Z,17.60
2023-01-21T03:26:09.042Z,18.50
2023-01-21T03:27:09.050Z,17.50
2023-01-21T03:28:09.013Z,18.40
2023-01-21T03:29:09.004Z,18.20
2023-01-21T03:30:08.985Z,16.80
2023-01-21T03:31:09.061Z,16.10
2023-01-21T03:32:08.955Z,19.20
2023-01-21T03:33:08.941Z,15.90
2023-01-21T03:34:08.924Z,16.80
2023-01-21T03:35:08.913Z,15.00
2023-01-21T03:36:08.908Z,16.00
2023-01-21T03:37:08.878Z,15.20
2023-01-21T03:38:08.871Z,15.80
2023-01-21T03:39:08.883Z,15.30
2023-01-21T03:40:08.841Z,14.50
2023-01-21T03:41:08.828Z,15.60
2023-01-21T03:42:08.811Z,15.90
2023-01-21T03:43:08.794Z,14.00
2023-01-21T03:44:08.779Z,16.40
2023-01-21T03:45:08.783Z,15.90
2023-01-21T03:46:08.755Z,15.10
2023-01-21T03:47:08.739Z,14.90
2023-01-21T03:48:08.724Z,14.00
2023-01-21T03:49:08.704Z,15.70
2023-01-21T03:50:08.698Z,14.20
2023-01-21T03:51:08.754Z,13.50
2023-01-21T03:52:08.673Z,17.50
2023-01-21T03:53:08.650Z,16.70
2023-01-21T03:54:08.632Z,13.20
2023-01-21T03:55:08.618Z,12.30
2023-01-21T03:56:08.611Z,15.60
2023-01-21T03:57:08.589Z,14.60
2023-01-21T03:58:08.577Z,13.50
2023-01-21T03:59:08.563Z,14.50
2023-01-21T04:00:08.556Z,15.50
2023-01-21T04:01:08.645Z,16.40
2023-01-21T04:02:08.572Z,16.30
2023-01-21T04:03:08.510Z,14.10
2023-01-21T04:04:08.489Z,12.30
2023-01-21T04:05:08.479Z,12.30
2023-01-21T04:06:08.466Z,14.80
2023-01-21T04:07:08.449Z,13.00
2023-01-21T04:08:08.433Z,15.50
2023-01-21T04:09:08.417Z,15.00
2023-01-21T04:10:08.398Z,14.40
2023-01-21T04:11:08.392Z,16.80
2023-01-21T04:12:08.385Z,14.60
2023-01-21T04:13:08.359Z,15.50
2023-01-21T04:14:08.341Z,14.40
2023-01-21T04:15:08.327Z,15.30
2023-01-21T04:16:08.623Z,15.40
2023-01-21T04:17:08.341Z,15.60
2023-01-21T04:18:08.285Z,15.90
2023-01-21T04:19:08.284Z,15.80
2023-01-21T04:20:08.264Z,16.00
2023-01-21T04:21:08.241Z,17.50
2023-01-21T04:22:08.228Z,16.40
2023-01-21T04:23:08.211Z,18.10
2023-01-21T04:24:08.199Z,16.30
2023-01-21T04:25:08.177Z,16.30
2023-01-21T04:26:08.174Z,16.80
2023-01-21T04:27:08.163Z,16.60
2023-01-21T04:28:08.142Z,16.20
2023-01-21T04:29:08.120Z,16.70
2023-01-21T04:30:08.117Z,16.10
2023-01-21T04:31:08.157Z,18.40
2023-01-21T04:32:08.076Z,17.40
2023-01-21T04:33:08.070Z,15.10
2023-01-21T04:34:08.054Z,16.70
2023-01-21T04:35:08.030Z,16.20
2023-01-21T04:36:08.034Z,15.70
2023-01-21T04:37:07.999Z,15.20
2023-01-21T04:38:07.997Z,16.60
2023-01-21T04:39:07.975Z,16.70
2023-01-21T04:40:07.955Z,17.80
2023-01-21T04:41:07.939Z,18.40
2023-01-21T04:42:07.930Z,17.00
2023-01-21T04:43:07.921Z,17.80
2023-01-21T04:44:07.897Z,17.80
2023-01-21T04:45:07.885Z,17.20
2023-01-21T04:46:07.889Z,15.30
2023-01-21T04:47:07.855Z,17.80
2023-01-21T04:48:07.844Z,15.00
2023-01-21T04:49:07.824Z,15.70
2023-01-21T04:50:07.811Z,15.50
2023-01-21T04:51:07.875Z,14.50
2023-01-21T04:52:07.788Z,15.20
2023-01-21T04:53:07.778Z,17.20
2023-01-21T04:54:07.753Z,17.80
2023-01-21T04:55:07.732Z,17.00
2023-01-21T04:56:07.716Z,17.10
2023-01-21T04:57:07.703Z,17.50
2023-01-21T04:58:07.687Z,16.80
2023-01-21T04:59:07.678Z,18.80
2023-01-21T05:00:07.680Z,18.30
2023-01-21T05:01:07.732Z,16.70
2023-01-21T05:02:07.646Z,16.90
2023-01-21T05:03:07.622Z,16.50
2023-01-21T05:04:07.603Z,17.50
2023-01-21T05:05:07.586Z,17.30
2023-01-21T05:06:07.570Z,19.10
2023-01-21T05:07:07.568Z,18.20
2023-01-21T05:08:07.599Z,17.30
2023-01-21T05:09:07.525Z,17.00
2023-01-21T05:10:07.508Z,16.30
2023-01-21T05:11:07.502Z,18.60
2023-01-21T05:12:07.480Z,17.90
2023-01-21T05:13:07.468Z,17.80
2023-01-21T05:14:07.451Z,17.00
2023-01-21T05:15:07.441Z,18.00
2023-01-21T05:16:07.478Z,17.90
2023-01-21T05:17:07.406Z,15.60
2023-01-21T05:18:07.391Z,16.60
2023-01-21T05:19:07.374Z,16.30
2023-01-21T05:20:07.363Z,16.20
2023-01-21T05:21:07.348Z,17.90
2023-01-21T05:22:07.335Z,18.00
2023-01-21T05:23:07.323Z,17.50
2023-01-21T05:24:07.300Z,18.30
2023-01-21T05:25:07.285Z,18.50
2023-01-21T05:26:07.279Z,18.00
2023-01-21T05:27:07.281Z,17.50
2023-01-21T05:28:07.249Z,21.00
2023-01-21T05:29:07.231Z,18.10
2023-01-21T05:30:07.216Z,19.10
2023-01-21T05:31:07.309Z,18.00
2023-01-21T05:32:07.197Z,19.30
2023-01-21T05:33:07.170Z,19.10
2023-01-21T05:34:07.179Z,20.20
2023-01-21T05:35:07.151Z,18.80
2023-01-21T05:36:07.129Z,16.50
2023-01-21T05:37:07.104Z,17.20
2023-01-21T05:38:07.095Z,17.90
2023-01-21T05:39:07.075Z,17.20
2023-01-21T05:40:07.061Z,18.00
2023-01-21T05:41:07.062Z,16.50
2023-01-21T05:42:07.039Z,16.80
2023-01-21T05:43:07.130Z,16.70
2023-01-21T05:44:07.001Z,18.20
2023-01-21T05:45:06.990Z,17.70
2023-01-21T05:46:07.139Z,16.50
2023-01-21T05:47:06.956Z,18.60
2023-01-21T05:48:06.945Z,16.20
2023-01-21T05:49:06.928Z,17.60
2023-01-21T05:50:06.914Z,17.10
2023-01-21T05:51:06.942Z,16.50
2023-01-21T05:52:06.878Z,18.30
2023-01-21T05:53:06.868Z,14.50
2023-01-21T05:54:06.848Z,17.70
2023-01-21T05:55:06.835Z,18.20
2023-01-21T05:56:06.820Z,17.90
2023-01-21T05:57:06.811Z,17.50
2023-01-21T05:58:06.825Z,17.80
2023-01-21T05:59:06.797Z,17.00
2023-01-21T06:00:06.788Z,16.90
2023-01-21T06:01:06.747Z,17.80
2023-01-21T06:02:06.796Z,16.60
2023-01-21T06:03:13.908Z,17.50
2023-01-21T06:04:59.640Z,17.70
2023-01-21T06:05:59.594Z,16.80
2023-01-21T06:08:04.064Z,18.20
2023-01-21T06:09:04.023Z,18.70
2023-01-21T06:10:04.011Z,17.70
2023-01-21T06:11:04.058Z,18.90
2023-01-21T06:12:03.980Z,17.90
2023-01-21T06:13:03.969Z,17.40
2023-01-21T06:14:03.948Z,18.70
2023-01-21T06:15:03.934Z,18.20
2023-01-21T06:16:04.027Z,16.90
2023-01-21T06:17:03.913Z,17.30
2023-01-21T06:18:03.925Z,18.80
2023-01-21T06:19:03.879Z,18.00
2023-01-21T06:20:03.861Z,18.60
2023-01-21T06:21:03.845Z,19.00
2023-01-21T06:22:03.829Z,18.40
2023-01-21T06:23:03.817Z,17.70
2023-01-21T06:24:03.800Z,18.10
2023-01-21T06:25:03.790Z,16.70
2023-01-21T06:26:03.799Z,18.00
2023-01-21T06:27:03.756Z,19.20
2023-01-21T06:28:03.743Z,19.20
2023-01-21T06:29:03.732Z,17.80
2023-01-21T06:30:03.721Z,17.20
2023-01-21T06:31:03.806Z,19.40
2023-01-21T06:32:03.847Z,20.30
2023-01-21T06:33:03.673Z,18.40
2023-01-21T06:34:03.660Z,18.20
2023-01-21T06:35:03.658Z,18.40
2023-01-21T06:36:03.628Z,21.60
2023-01-21T06:37:03.609Z,19.90
2023-01-21T06:38:03.605Z,17.30
2023-01-21T06:39:03.581Z,17.80
2023-01-21T06:40:03.567Z,18.60
2023-01-21T06:41:03.566Z,19.30
2023-01-21T06:42:03.540Z,19.60
2023-01-21T06:43:03.527Z,18.50
2023-01-21T06:44:03.510Z,19.90
2023-01-21T06:45:03.495Z,21.30
2023-01-21T06:46:03.557Z,20.20
2023-01-21T06:47:03.536Z,17.60
2023-01-21T06:48:03.458Z,18.80
2023-01-21T06:49:03.461Z,19.20
2023-01-21T06:50:03.429Z,18.90
2023-01-21T06:51:03.488Z,19.90
2023-01-21T06:52:03.389Z,20.00
2023-01-21T06:53:03.377Z,20.40
2023-01-21T06:54:03.379Z,20.90
2023-01-21T06:55:03.349Z,19.80
2023-01-21T06:56:03.339Z,19.80
2023-01-21T06:57:03.319Z,19.40
2023-01-21T06:58:03.307Z,18.40
2023-01-21T06:59:03.288Z,20.20
2023-01-21T07:00:03.273Z,20.10
2023-01-21T07:01:03.261Z,18.10
2023-01-21T07:02:03.243Z,20.80
2023-01-21T07:03:03.273Z,20.50
2023-01-21T07:04:03.225Z,21.40
2023-01-21T07:05:03.281Z,20.80
2023-01-21T07:06:03.185Z,20.20
2023-01-21T07:07:03.179Z,22.30
2023-01-21T07:08:03.155Z,21.00
2023-01-21T07:09:03.145Z,20.60
2023-01-21T07:10:03.142Z,22.70
2023-01-21T07:11:03.115Z,21.70
2023-01-21T07:12:03.099Z,20.20
2023-01-21T07:13:03.080Z,21.00
2023-01-21T07:14:03.069Z,20.00
2023-01-21T07:15:03.058Z,20.50
2023-01-21T07:16:05.920Z,20.90
2023-01-21T07:17:03.037Z,24.20
2023-01-21T07:18:03.028Z,21.30
2023-01-21T07:19:02.992Z,20.90
2023-01-21T07:20:02.991Z,21.30
2023-01-21T07:21:02.967Z,24.80
2023-01-21T07:22:02.957Z,24.50
2023-01-21T07:23:02.933Z,23.50
2023-01-21T07:24:02.918Z,24.40
2023-01-21T07:25:02.914Z,22.80
2023-01-21T07:26:02.889Z,24.30
2023-01-21T07:27:02.881Z,24.90
2023-01-21T07:28:02.881Z,24.60
2023-01-21T07:29:02.864Z,23.10
2023-01-21T07:30:02.837Z,22.60
2023-01-21T07:31:02.899Z,24.80
2023-01-21T07:32:02.902Z,22.70
2023-01-21T07:33:02.793Z,24.60
2023-01-21T07:34:02.774Z,22.80
2023-01-21T07:35:02.769Z,23.50
2023-01-21T07:36:02.747Z,24.10
2023-01-21T07:37:02.755Z,22.60
2023-01-21T07:38:02.723Z,22.90
2023-01-21T07:39:02.703Z,24.20
2023-01-21T07:40:02.704Z,24.80
2023-01-21T07:41:02.665Z,25.30
2023-01-21T07:42:02.656Z,24.90
2023-01-21T07:43:02.641Z,26.50
2023-01-21T07:44:02.628Z,26.10
2023-01-21T07:45:02.615Z,25.90
2023-01-21T07:46:02.603Z,24.70
2023-01-21T07:47:02.603Z,24.60
2023-01-21T07:48:02.565Z,26.40
2023-01-21T07:49:02.552Z,24.90
2023-01-21T07:50:02.540Z,23.80
2023-01-21T07:51:02.542Z,22.00
2023-01-21T07:52:02.507Z,23.70
2023-01-21T07:53:02.498Z,25.30
2023-01-21T07:54:02.484Z,23.70
2023-01-21T07:55:02.478Z,25.00
2023-01-21T07:56:02.449Z,25.20
2023-01-21T07:57:02.447Z,24.90
2023-01-21T07:58:02.421Z,23.80
2023-01-21T07:59:02.404Z,25.70
2023-01-21T08:00:02.390Z,23.70
2023-01-21T08:01:02.377Z,24.20
2023-01-21T08:02:02.471Z,23.30
2023-01-21T08:03:02.355Z,25.80
2023-01-21T08:04:02.357Z,25.10
2023-01-21T08:05:02.333Z,23.80
2023-01-21T08:06:02.304Z,24.80
2023-01-21T08:07:02.292Z,25.00
2023-01-21T08:08:02.298Z,26.80
2023-01-21T08:09:02.263Z,25.70
2023-01-21T08:10:02.254Z,27.40
2023-01-21T08:11:02.245Z,27.10
2023-01-21T08:12:02.220Z,26.80
2023-01-21T08:13:02.242Z,27.70
2023-01-21T08:14:02.188Z,27.10
2023-01-21T08:15:02.171Z,24.90
2023-01-21T08:16:02.199Z,24.80
2023-01-21T08:17:02.144Z,25.90
2023-01-21T08:18:02.126Z,24.70
2023-01-21T08:19:02.117Z,26.40
2023-01-21T08:20:02.100Z,25.50
2023-01-21T08:21:02.089Z,26.20
2023-01-21T08:22:02.067Z,25.80
2023-01-21T08:23:02.055Z,26.10
2023-01-21T08:24:02.037Z,21.60
2023-01-21T08:25:02.025Z,23.40
2023-01-21T08:26:02.011Z,24.30
2023-01-21T08:27:01.996Z,24.90
2023-01-21T08:28:01.978Z,23.50
2023-01-21T08:29:01.965Z,24.10
2023-01-21T08:30:01.973Z,23.60
2023-01-21T08:31:02.042Z,25.20
2023-01-21T08:32:01.934Z,24.50
2023-01-21T08:33:01.908Z,25.10
2023-01-21T08:34:01.897Z,35.20
2023-01-21T08:35:01.891Z,31.00
2023-01-21T08:36:01.870Z,38.70
2023-01-21T08:37:01.868Z,52.30
2023-01-21T08:38:01.840Z,62.30
2023-01-21T08:39:01.825Z,32.90
2023-01-21T08:40:01.807Z,45.40
2023-01-21T08:41:01.790Z,68.60
2023-01-21T08:42:01.822Z,68.00
2023-01-21T08:43:01.774Z,70.30
2023-01-21T08:44:01.760Z,33.90
2023-01-21T08:45:01.736Z,39.90
2023-01-21T08:46:01.873Z,31.60
2023-01-21T08:47:01.713Z,24.60
2023-01-21T08:48:01.691Z,23.20
2023-01-21T08:49:01.685Z,26.90
2023-01-21T08:50:01.662Z,24.60
2023-01-21T08:51:01.715Z,23.60
2023-01-21T08:52:01.634Z,22.60
2023-01-21T08:53:01.618Z,23.40
2023-01-21T08:54:01.613Z,23.30
2023-01-21T08:55:01.591Z,23.60
2023-01-21T08:56:01.617Z,25.30
2023-01-21T08:57:01.583Z,24.80
2023-01-21T08:58:01.694Z,24.30
2023-01-21T08:59:01.557Z,23.50
2023-01-21T09:00:01.591Z,24.20
2023-01-21T09:01:01.528Z,23.80
2023-01-21T09:02:01.554Z,23.60
2023-01-21T09:03:01.487Z,22.50
2023-01-21T09:04:01.472Z,22.20
2023-01-21T09:05:01.454Z,26.00
2023-01-21T09:06:01.436Z,24.20
2023-01-21T09:07:01.427Z,21.90
2023-01-21T09:08:01.416Z,23.40
2023-01-21T09:09:01.397Z,23.00
2023-01-21T09:10:01.380Z,23.30
2023-01-21T09:11:01.378Z,26.50
2023-01-21T09:12:01.363Z,24.90
2023-01-21T09:13:01.340Z,24.80
2023-01-21T09:14:01.324Z,22.20
2023-01-21T09:15:01.319Z,23.50
2023-01-21T09:16:01.297Z,25.20
2023-01-21T09:17:01.295Z,25.70
2023-01-21T09:18:01.271Z,24.80
2023-01-21T09:19:01.252Z,24.50
2023-01-21T09:20:01.245Z,23.80
2023-01-21T09:21:01.227Z,25.60
2023-01-21T09:22:01.220Z,25.50
2023-01-21T09:23:01.200Z,24.50
2023-01-21T09:24:01.189Z,25.80
2023-01-21T09:25:01.168Z,26.90
2023-01-21T09:26:01.154Z,28.30
2023-01-21T09:27:01.155Z,27.60
2023-01-21T09:28:01.130Z,26.50
2023-01-21T09:29:01.132Z,27.00
2023-01-21T09:30:01.105Z,25.60
2023-01-21T09:31:01.145Z,26.20
2023-01-21T09:32:01.108Z,25.90
2023-01-21T09:33:01.080Z,26.00
2023-01-21T09:34:01.053Z,26.10
2023-01-21T09:35:01.026Z,28.20
2023-01-21T09:36:01.009Z,25.90
2023-01-21T09:37:01.000Z,27.60
2023-01-21T09:38:00.994Z,28.10
2023-01-21T09:39:00.973Z,27.30
2023-01-21T09:40:00.967Z,25.90
2023-01-21T09:41:00.946Z,26.10
2023-01-21T09:42:00.930Z,27.50
2023-01-21T09:43:00.915Z,27.90
2023-01-21T09:44:00.902Z,26.60
2023-01-21T09:45:00.885Z,27.40
2023-01-21T09:46:03.765Z,27.30
2023-01-21T09:47:00.867Z,28.20
2023-01-21T09:48:00.852Z,25.70
2023-01-21T09:49:00.832Z,26.80
2023-01-21T09:50:00.815Z,25.50
2023-01-21T09:51:00.851Z,25.10
2023-01-21T09:52:00.788Z,26.20
2023-01-21T09:53:00.774Z,26.50
2023-01-21T09:54:00.762Z,25.90
2023-01-21T09:55:00.748Z,25.20
2023-01-21T09:56:00.732Z,23.40
2023-01-21T09:57:00.722Z,24.80
2023-01-21T09:58:00.705Z,21.80
2023-01-21T09:59:00.691Z,25.40
2023-01-21T10:00:00.694Z,22.80
2023-01-21T10:01:00.751Z,25.20
2023-01-21T10:02:00.664Z,23.10
2023-01-21T10:03:00.637Z,24.60
2023-01-21T10:04:00.616Z,24.60
2023-01-21T10:05:00.618Z,23.20
2023-01-21T10:06:00.593Z,24.10
2023-01-21T10:07:00.580Z,23.80
2023-01-21T10:08:00.571Z,23.50
2023-01-21T10:09:00.550Z,23.90
2023-01-21T10:10:00.543Z,24.80
2023-01-21T10:11:00.562Z,23.30
2023-01-21T10:12:00.511Z,23.60
2023-01-21T10:13:00.504Z,22.40
2023-01-21T10:14:00.489Z,21.60
2023-01-21T10:15:00.480Z,23.20
2023-01-21T10:16:00.455Z,24.30
2023-01-21T10:17:00.478Z,23.10
2023-01-21T10:18:00.429Z,21.20
2023-01-21T10:19:00.429Z,20.90
2023-01-21T10:20:00.410Z,21.80
2023-01-21T10:21:00.397Z,21.60
2023-01-21T10:22:00.371Z,21.00
2023-01-21T10:23:00.358Z,19.80
2023-01-21T10:24:00.345Z,21.70
2023-01-21T10:25:00.329Z,22.30
2023-01-21T10:26:00.322Z,19.00
2023-01-21T10:27:00.306Z,18.70
2023-01-21T10:28:00.285Z,21.20
2023-01-21T10:29:00.277Z,21.10
2023-01-21T10:30:00.284Z,19.80
2023-01-21T10:31:00.351Z,18.50
2023-01-21T10:32:00.251Z,21.40
2023-01-21T10:33:00.221Z,19.60
2023-01-21T10:34:00.210Z,20.00
2023-01-21T10:35:00.193Z,19.90
2023-01-21T10:36:00.180Z,18.80
2023-01-21T10:37:00.185Z,19.70
2023-01-21T10:38:00.151Z,17.70
2023-01-21T10:39:00.139Z,18.80
2023-01-21T10:40:00.145Z,18.00
2023-01-21T10:41:00.108Z,19.10
2023-01-21T10:42:00.120Z,20.70
2023-01-21T10:43:00.113Z,20.30
2023-01-21T10:44:00.111Z,17.90
2023-01-21T10:45:00.065Z,19.80
2023-01-21T10:46:00.130Z,20.90
2023-01-21T10:47:00.027Z,20.50
2023-01-21T10:48:00.014Z,17.50
2023-01-21T10:49:00.003Z,19.70
2023-01-21T10:49:59.985Z,18.80
2023-01-21T10:50:59.979Z,18.70
2023-01-21T10:51:59.987Z,18.60
2023-01-21T10:52:59.948Z,17.30
2023-01-21T10:53:59.991Z,19.30
2023-01-21T10:54:59.921Z,17.60
2023-01-21T10:55:59.911Z,17.60
2023-01-21T10:56:59.890Z,18.80
2023-01-21T10:57:59.880Z,18.70
2023-01-21T10:58:59.863Z,17.10
2023-01-21T10:59:59.846Z,17.20
2023-01-21T11:00:59.910Z,17.60
2023-01-21T11:01:59.820Z,16.90
2023-01-21T11:02:59.810Z,16.20
2023-01-21T11:03:59.801Z,16.30
2023-01-21T11:04:59.790Z,18.80
2023-01-21T11:05:59.769Z,18.80
2023-01-21T11:06:59.751Z,18.20
2023-01-21T11:07:59.751Z,17.30
2023-01-21T11:08:59.772Z,17.40
2023-01-21T11:09:59.732Z,17.20
2023-01-21T11:10:59.697Z,19.30
2023-01-21T11:11:59.682Z,19.50
2023-01-21T11:12:59.686Z,19.40
2023-01-21T11:13:59.656Z,17.80
2023-01-21T11:14:59.644Z,28.10
2023-01-21T11:15:59.701Z,18.40
2023-01-21T11:16:59.612Z,17.20
2023-01-21T11:17:59.646Z,16.90
2023-01-21T11:18:59.585Z,18.40
2023-01-21T11:19:59.604Z,17.50
2023-01-21T11:20:59.599Z,16.40
2023-01-21T11:21:59.552Z,20.60
2023-01-21T11:22:59.562Z,17.80
2023-01-21T11:24:00.115Z,16.70
2023-01-21T11:24:59.511Z,17.70
2023-01-21T11:25:59.495Z,18.60
2023-01-21T11:26:59.487Z,17.50
2023-01-21T11:27:59.469Z,16.80
2023-01-21T11:28:59.455Z,18.20
2023-01-21T11:29:59.610Z,16.40
2023-01-21T11:30:59.618Z,17.10
2023-01-21T11:31:59.624Z,15.50
2023-01-21T11:32:59.396Z,16.90
2023-01-21T11:33:59.410Z,16.30
2023-01-21T11:34:59.369Z,16.80
2023-01-21T11:35:59.358Z,18.40
2023-01-21T11:36:59.351Z,16.00
2023-01-21T11:37:59.329Z,16.60
2023-01-21T11:38:59.350Z,17.00
2023-01-21T11:39:59.396Z,18.00
2023-01-21T11:40:59.291Z,17.00
2023-01-21T11:41:59.306Z,17.40
2023-01-21T11:42:59.285Z,16.20
2023-01-21T11:43:59.250Z,16.30
2023-01-21T11:44:59.265Z,18.40
2023-01-21T11:45:59.283Z,18.20
2023-01-21T11:46:59.223Z,16.30
2023-01-21T11:47:59.215Z,14.60
2023-01-21T11:48:59.180Z,15.80
2023-01-21T11:49:59.198Z,15.30
2023-01-21T11:50:59.218Z,17.00
2023-01-21T11:51:59.149Z,16.10
2023-01-21T11:53:01.822Z,17.10
2023-01-21T11:53:59.115Z,17.60
2023-01-21T11:54:59.106Z,15.90
2023-01-21T11:55:59.085Z,15.60
2023-01-21T11:56:59.075Z,16.50
2023-01-21T11:57:59.062Z,14.80
2023-01-21T11:58:59.116Z,15.60
2023-01-21T11:59:59.084Z,15.30
2023-01-21T12:00:59.027Z,14.70
2023-01-21T12:01:59.022Z,15.40
2023-01-21T12:02:59.200Z,14.80
2023-01-21T12:03:59.088Z,15.10
2023-01-21T12:04:58.981Z,16.70
2023-01-21T12:05:58.971Z,19.40
2023-01-21T12:06:58.945Z,16.90
2023-01-21T12:07:58.930Z,15.80
2023-01-21T12:08:58.916Z,14.70
2023-01-21T12:09:58.906Z,13.80
2023-01-21T12:10:58.890Z,14.20
2023-01-21T12:11:58.879Z,15.50
2023-01-21T12:12:58.881Z,13.70
2023-01-21T12:13:58.851Z,13.10
2023-01-21T12:14:58.837Z,14.80
2023-01-21T12:15:59.476Z,13.50
2023-01-21T12:16:58.822Z,15.60
2023-01-21T12:17:58.804Z,13.60
2023-01-21T12:18:58.784Z,16.20
2023-01-21T12:19:58.770Z,14.20
2023-01-21T12:20:58.829Z,12.80
2023-01-21T12:21:58.749Z,12.80
2023-01-21T12:22:58.736Z,11.90
2023-01-21T12:23:58.716Z,13.00
2023-01-21T12:24:58.715Z,14.00
2023-01-21T12:25:58.708Z,13.00
2023-01-21T12:26:58.683Z,10.60
2023-01-21T12:27:58.692Z,11.90
2023-01-21T12:28:59.592Z,10.50
2023-01-21T12:29:58.641Z,11.50
2023-01-21T12:30:58.779Z,13.80
2023-01-21T12:31:58.683Z,10.00
2023-01-21T12:32:58.602Z,12.00
2023-01-21T12:33:58.610Z,10.30
2023-01-21T12:34:58.597Z,12.00
2023-01-21T12:35:58.566Z,10.80
2023-01-21T12:36:58.547Z,10.30
2023-01-21T12:37:58.534Z,11.90
2023-01-21T12:38:58.525Z,11.50
2023-01-21T12:39:58.518Z,11.00
2023-01-21T12:40:58.499Z,10.90
2023-01-21T12:41:58.482Z,11.80
2023-01-21T12:42:58.473Z,10.40
2023-01-21T12:43:58.461Z,9.30
2023-01-21T12:44:58.450Z,11.50
2023-01-21T12:45:58.432Z,8.60
2023-01-21T12:46:58.483Z,10.80
2023-01-21T12:47:58.405Z,8.90
2023-01-21T12:48:59.383Z,9.80
2023-01-21T12:49:58.381Z,8.70
2023-01-21T12:50:58.422Z,9.10
2023-01-21T12:51:58.355Z,10.30
2023-01-21T12:52:58.384Z,7.90
2023-01-21T12:53:58.326Z,8.10
2023-01-21T12:54:58.318Z,10.30